createdAt,value
2022-10-14T00:02:08.940Z,89.62
2022-10-14T00:05:11.407Z,89.98
2022-10-14T00:08:13.808Z,90.21
2022-10-14T00:11:19.169Z,89.26
2022-10-14T00:14:22.135Z,89.41
2022-10-14T00:17:25.182Z,89.58
2022-10-14T00:20:29.781Z,89.47
2022-10-14T00:23:32.338Z,89.44
2022-10-14T00:26:37.434Z,89.61
2022-10-14T00:29:39.886Z,89.73
2022-10-14T00:32:42.330Z,89.97
2022-10-14T00:35:44.793Z,89.41
2022-10-14T00:38:48.175Z,89.60
2022-10-14T00:41:50.532Z,88.99
2022-10-14T00:45:02.742Z,89.14
2022-10-14T00:48:06.915Z,89.49
2022-10-14T00:51:09.903Z,89.51
2022-10-14T00:54:15.008Z,89.31
2022-10-14T00:57:18.450Z,89.68
2022-10-14T01:00:21.826Z,89.84
2022-10-14T01:03:24.450Z,89.88
2022-10-14T01:06:33.638Z,89.72
2022-10-14T01:10:02.736Z,89.86
2022-10-14T01:13:24.012Z,89.55
2022-10-14T01:16:37.959Z,89.46
2022-10-14T01:20:08.417Z,89.59
2022-10-14T01:23:41.726Z,89.60
2022-10-14T01:27:17.559Z,89.15
2022-10-14T01:30:23.167Z,89.18
2022-10-14T01:33:28.882Z,88.96
2022-10-14T01:36:44.805Z,89.31
2022-10-14T01:39:54.408Z,89.40
2022-10-14T01:43:00.943Z,88.93
2022-10-14T01:46:06.167Z,88.80
2022-10-14T01:49:13.778Z,89.58
2022-10-14T01:52:27.987Z,89.56
2022-10-14T01:55:40.571Z,89.72
2022-10-14T01:58:45.078Z,89.37
2022-10-14T02:01:47.547Z,89.23
2022-10-14T02:04:52.116Z,89.47
2022-10-14T02:08:12.153Z,89.54
2022-10-14T02:11:20.078Z,89.48
2022-10-14T02:14:50.787Z,89.41
2022-10-14T02:18:20.483Z,89.25
2022-10-14T02:21:44.128Z,89.25
2022-10-14T02:24:53.614Z,89.36
2022-10-14T02:27:58.734Z,89.17
2022-10-14T02:31:06.923Z,88.33
2022-10-14T02:34:13.804Z,88.54
2022-10-14T02:37:17.839Z,88.53
2022-10-14T02:40:32.806Z,88.13
2022-10-14T02:43:35.936Z,87.31
2022-10-14T02:46:42.857Z,87.02
2022-10-14T02:49:46.727Z,86.58
2022-10-14T02:52:49.134Z,86.69
2022-10-14T02:55:51.582Z,86.48
2022-10-14T02:58:53.999Z,86.58
2022-10-14T03:01:58.116Z,87.34
2022-10-14T03:05:00.500Z,88.01
2022-10-14T03:08:04.326Z,88.54
2022-10-14T03:11:09.148Z,88.69
2022-10-14T03:14:12.265Z,88.27
2022-10-14T03:17:14.874Z,88.73
2022-10-14T03:20:20.350Z,88.84
2022-10-14T03:23:27.029Z,89.19
2022-10-14T03:26:30.156Z,88.56
2022-10-14T03:29:32.799Z,88.85
2022-10-14T03:32:47.078Z,88.34
2022-10-14T03:36:08.513Z,88.31
2022-10-14T03:39:23.009Z,87.64
2022-10-14T03:42:26.855Z,87.58
2022-10-14T03:45:29.290Z,87.72
2022-10-14T03:48:32.360Z,88.25
2022-10-14T03:51:35.229Z,88.48
2022-10-14T03:54:46.442Z,88.13
2022-10-14T03:57:51.857Z,88.10
2022-10-14T04:00:56.336Z,88.35
2022-10-14T04:04:19.159Z,88.16
2022-10-14T04:07:22.463Z,88.39
2022-10-14T04:10:31.315Z,88.89
2022-10-14T04:13:34.493Z,88.04
2022-10-14T04:16:37.030Z,88.60
2022-10-14T04:19:45.587Z,88.06
2022-10-14T04:22:50.898Z,87.51
2022-10-14T04:25:54.419Z,87.50
2022-10-14T04:28:59.096Z,88.31
2022-10-14T04:32:24.760Z,88.43
2022-10-14T04:35:28.123Z,88.46
2022-10-14T04:38:32.842Z,88.40
2022-10-14T04:41:40.067Z,87.94
2022-10-14T04:44:42.743Z,87.55
2022-10-14T04:47:48.771Z,87.92
2022-10-14T04:50:54.580Z,87.84
2022-10-14T04:54:23.483Z,88.08
2022-10-14T04:57:29.272Z,88.00
2022-10-14T05:00:31.630Z,87.32
2022-10-14T05:03:45.212Z,87.45
2022-10-14T05:06:48.230Z,87.24
2022-10-14T05:09:56.585Z,86.90
2022-10-14T05:13:12.962Z,86.60
2022-10-14T05:16:28.281Z,86.13
2022-10-14T05:19:31.667Z,85.54
2022-10-14T05:22:34.930Z,85.57
2022-10-14T05:25:38.874Z,85.63
2022-10-14T05:28:41.700Z,84.53
2022-10-14T05:31:44.941Z,84.66
2022-10-14T05:35:08.992Z,84.30
2022-10-14T05:38:14.858Z,85.20
2022-10-14T05:41:19.562Z,85.09
2022-10-14T05:44:22.568Z,85.02
2022-10-14T05:47:25.944Z,84.92
2022-10-14T05:50:34.563Z,84.45
2022-10-14T05:53:43.644Z,84.30
2022-10-14T05:56:51.336Z,83.38
2022-10-14T05:59:55.183Z,83.03
2022-10-14T06:02:58.692Z,82.93
2022-10-14T06:06:02.789Z,82.79
2022-10-14T06:09:11.057Z,82.56
2022-10-14T06:12:14.250Z,82.32
2022-10-14T06:15:17.475Z,82.50
2022-10-14T06:18:20.965Z,82.26
2022-10-14T06:21:23.747Z,82.26
2022-10-14T06:24:26.322Z,81.77
2022-10-14T06:27:28.868Z,81.40
2022-10-14T06:30:32.121Z,81.22
2022-10-14T06:33:34.919Z,80.75
2022-10-14T06:36:37.383Z,80.15
2022-10-14T06:39:42.042Z,79.77
2022-10-14T06:42:44.700Z,79.14
2022-10-14T06:45:48.519Z,78.88
2022-10-14T06:48:51.646Z,79.42
2022-10-14T06:51:54.237Z,80.93
2022-10-14T06:54:56.920Z,82.02
2022-10-14T06:57:59.448Z,80.78
2022-10-14T07:01:06.400Z,80.23
2022-10-14T07:04:09.106Z,81.59
2022-10-14T07:07:11.641Z,80.47
2022-10-14T07:10:14.136Z,79.74
2022-10-14T07:13:16.619Z,79.71
2022-10-14T07:16:19.147Z,79.72
2022-10-14T07:19:21.627Z,80.18
2022-10-14T07:22:24.381Z,79.61
2022-10-14T07:25:27.244Z,79.69
2022-10-14T07:28:30.033Z,79.92
2022-10-14T07:31:32.649Z,79.33
2022-10-14T07:34:35.262Z,80.67
2022-10-14T07:37:39.674Z,79.34
2022-10-14T07:40:44.838Z,78.31
2022-10-14T07:43:52.389Z,77.46
2022-10-14T07:46:55.210Z,76.81
2022-10-14T07:49:57.775Z,75.99
2022-10-14T07:53:01.372Z,75.95
2022-10-14T07:56:04.378Z,75.89
2022-10-14T07:59:07.410Z,75.55
2022-10-14T08:02:12.168Z,75.17
2022-10-14T08:08:37.991Z,74.26
2022-10-14T08:11:40.873Z,74.50
2022-10-14T08:14:43.458Z,73.50
2022-10-14T08:17:45.841Z,73.43
2022-10-14T08:20:48.535Z,73.74
2022-10-14T08:23:51.367Z,72.95
2022-10-14T08:26:59.314Z,72.95
2022-10-14T08:30:01.856Z,73.25
2022-10-14T08:33:04.377Z,72.76
2022-10-14T08:36:07.613Z,72.20
2022-10-14T08:42:31.315Z,71.17
2022-10-14T08:45:38.366Z,70.21
2022-10-14T08:48:42.094Z,69.78
2022-10-14T08:51:48.692Z,69.16
2022-10-14T08:54:55.999Z,68.80
2022-10-14T08:58:08.893Z,68.83
2022-10-14T09:01:32.215Z,69.11
2022-10-14T09:04:36.106Z,67.74
2022-10-14T09:07:38.812Z,67.56
2022-10-14T09:10:44.174Z,66.90
2022-10-14T09:13:59.687Z,67.60
2022-10-14T09:17:13.808Z,66.42
2022-10-14T09:20:24.866Z,66.22
2022-10-14T09:23:27.928Z,66.59
2022-10-14T09:26:40.731Z,66.66
2022-10-14T09:29:48.721Z,67.40
2022-10-14T09:32:54.472Z,67.23
2022-10-14T09:39:05.467Z,67.59
2022-10-14T09:42:19.503Z,66.77
2022-10-14T09:45:24.632Z,66.79
2022-10-14T09:48:31.618Z,66.54
2022-10-14T09:51:35.280Z,66.77
2022-10-14T09:54:37.918Z,66.53
2022-10-14T09:57:40.524Z,66.68
2022-10-14T10:00:45.323Z,66.28
2022-10-14T10:03:49.167Z,66.32
2022-10-14T10:06:54.066Z,66.32
2022-10-14T10:09:59.072Z,65.88
2022-10-14T10:13:04.931Z,66.41
2022-10-14T10:16:19.151Z,66.72
2022-10-14T10:19:29.074Z,66.47
2022-10-14T10:22:40.743Z,66.66
2022-10-14T10:25:43.420Z,66.17
2022-10-14T10:28:48.748Z,65.89
2022-10-14T10:32:16.978Z,65.00
2022-10-14T10:35:57.862Z,64.99
2022-10-14T10:39:35.682Z,63.92
2022-10-14T10:42:59.760Z,63.22
2022-10-14T10:46:34.308Z,63.52
2022-10-14T10:49:58.971Z,63.11
2022-10-14T10:53:29.535Z,63.32
2022-10-14T10:56:41.634Z,63.06
2022-10-14T10:59:56.940Z,62.63
2022-10-14T11:03:08.151Z,61.90
2022-10-14T11:06:14.209Z,62.74
2022-10-14T11:09:59.701Z,62.48
2022-10-14T11:13:24.681Z,62.61
2022-10-14T11:16:34.448Z,62.88
2022-10-14T11:19:50.420Z,62.30
2022-10-14T11:23:25.194Z,62.26
2022-10-14T11:26:27.675Z,61.70
2022-10-14T11:30:08.985Z,61.41
2022-10-14T11:33:23.938Z,61.33
2022-10-14T11:36:30.706Z,61.07
2022-10-14T11:39:56.853Z,62.09
2022-10-14T11:43:07.076Z,61.34
2022-10-14T11:46:13.180Z,61.16
2022-10-14T11:49:25.422Z,61.29
2022-10-14T11:52:32.859Z,60.48
2022-10-14T11:55:43.242Z,61.78
2022-10-14T11:58:48.310Z,61.55
2022-10-14T12:01:58.770Z,60.82
2022-10-14T12:05:32.835Z,60.00
2022-10-14T12:08:55.198Z,59.77
2022-10-14T12:12:08.188Z,60.02
2022-10-14T12:15:21.092Z,58.60
2022-10-14T12:18:23.923Z,60.02
2022-10-14T12:21:38.535Z,59.24
2022-10-14T12:24:46.913Z,59.23
2022-10-14T12:27:52.203Z,57.78
2022-10-14T12:31:20.379Z,57.03
2022-10-14T12:34:37.861Z,56.96
2022-10-14T12:37:50.092Z,57.25
2022-10-14T12:40:53.103Z,56.83
2022-10-14T12:44:03.888Z,56.90
2022-10-14T12:47:15.766Z,57.58
2022-10-14T12:50:18.704Z,56.74
2022-10-14T12:53:26.785Z,56.37
2022-10-14T12:56:36.374Z,56.74
2022-10-14T12:59:39.484Z,56.07
2022-10-14T13:02:46.878Z,56.07
2022-10-14T13:05:49.524Z,56.06
2022-10-14T13:09:15.348Z,56.58
2022-10-14T13:12:20.759Z,57.03
2022-10-14T13:15:55.756Z,56.91
2022-10-14T13:18:59.632Z,57.20
2022-10-14T13:22:22.680Z,56.54
2022-10-14T13:25:28.782Z,56.93
2022-10-14T13:28:40.548Z,56.01
2022-10-14T13:32:04.763Z,56.07
2022-10-14T13:35:22.029Z,56.53
2022-10-14T13:38:24.688Z,57.48
2022-10-14T13:41:31.479Z,57.68
2022-10-14T13:44:34.555Z,58.13
2022-10-14T13:47:40.579Z,58.69
2022-10-14T13:50:44.399Z,58.45
2022-10-14T13:54:10.685Z,58.52
2022-10-14T14:00:49.519Z,59.47
2022-10-14T14:03:58.834Z,58.91
2022-10-14T14:07:24.497Z,59.90
2022-10-14T14:10:27.233Z,59.38
2022-10-14T14:13:46.698Z,59.99
2022-10-14T14:16:55.056Z,59.41
2022-10-14T14:19:57.530Z,60.86
2022-10-14T14:22:59.938Z,61.41
2022-10-14T14:26:18.293Z,59.74
2022-10-14T14:29:27.509Z,59.58
2022-10-14T14:32:31.922Z,60.59
2022-10-14T14:35:34.361Z,61.24
2022-10-14T14:38:38.191Z,61.46
2022-10-14T14:41:40.681Z,62.23
2022-10-14T14:44:46.080Z,61.92
2022-10-14T14:47:51.524Z,61.88
2022-10-14T14:50:55.403Z,62.22
2022-10-14T14:53:58.036Z,62.83
2022-10-14T14:57:00.310Z,62.52
2022-10-14T15:00:07.219Z,62.81
2022-10-14T15:03:09.642Z,63.50
2022-10-14T15:06:17.759Z,64.35
2022-10-14T15:09:33.867Z,65.32
2022-10-14T15:12:50.570Z,65.62
2022-10-14T15:15:55.793Z,66.17
2022-10-14T15:19:20.378Z,66.86
2022-10-14T15:22:30.441Z,67.25
2022-10-14T15:25:33.165Z,67.51
2022-10-14T15:28:36.805Z,67.95
2022-10-14T15:31:41.102Z,68.50
2022-10-14T15:34:44.159Z,68.89
2022-10-14T15:37:47.077Z,69.67
2022-10-14T15:40:50.380Z,70.26
2022-10-14T15:43:56.559Z,71.72
2022-10-14T15:47:17.510Z,72.62
2022-10-14T15:50:24.883Z,73.13
2022-10-14T15:53:28.167Z,73.04
2022-10-14T15:56:30.524Z,73.82
2022-10-14T15:59:32.910Z,75.01
2022-10-14T16:02:35.875Z,75.48
2022-10-14T16:05:39.760Z,75.20
2022-10-14T16:08:44.058Z,76.34
2022-10-14T16:11:48.065Z,76.89
2022-10-14T16:14:50.816Z,77.37
2022-10-14T16:17:53.344Z,77.57
2022-10-14T16:20:55.731Z,78.59
2022-10-14T16:24:01.030Z,79.47
2022-10-14T16:27:03.543Z,79.74
2022-10-14T16:30:06.953Z,80.80
2022-10-14T16:36:14.694Z,79.76
2022-10-14T16:39:18.988Z,78.74
2022-10-14T16:42:21.378Z,79.04
2022-10-14T16:45:23.730Z,79.23
2022-10-14T16:48:27.933Z,79.30
2022-10-14T16:51:30.669Z,79.89
2022-10-14T16:54:33.145Z,80.06
2022-10-14T16:57:35.551Z,80.73
2022-10-14T17:00:37.990Z,80.49
2022-10-14T17:03:44.529Z,80.76
2022-10-14T17:06:48.015Z,81.30
2022-10-14T17:09:51.380Z,81.59
2022-10-14T17:12:54.712Z,82.22
2022-10-14T17:16:04.377Z,82.39
2022-10-14T17:19:06.793Z,82.48
2022-10-14T17:22:09.194Z,83.00
2022-10-14T17:25:12.306Z,82.86
2022-10-14T17:28:14.777Z,82.76
2022-10-14T17:31:19.971Z,82.88
2022-10-14T17:34:22.372Z,83.43
2022-10-14T17:37:24.803Z,83.83
2022-10-14T17:40:27.191Z,83.18
2022-10-14T17:43:29.602Z,83.69
2022-10-14T17:46:33.034Z,83.91
2022-10-14T17:49:36.384Z,83.94
2022-10-14T17:52:38.843Z,84.33
2022-10-14T17:55:41.170Z,84.34
2022-10-14T17:58:43.542Z,84.47
2022-10-14T18:02:03.205Z,85.21
2022-10-14T18:05:06.376Z,84.94
2022-10-14T18:08:10.291Z,85.29
2022-10-14T18:11:13.158Z,85.24
2022-10-14T18:14:15.481Z,85.35
2022-10-14T18:17:17.867Z,85.37
2022-10-14T18:20:20.226Z,85.62
2022-10-14T18:23:31.950Z,85.77
2022-10-14T18:26:34.794Z,86.09
2022-10-14T18:29:38.455Z,85.96
2022-10-14T18:32:40.867Z,85.41
2022-10-14T18:35:46.451Z,85.24
2022-10-14T18:38:56.974Z,85.61
2022-10-14T18:41:59.439Z,85.26
2022-10-14T18:45:01.885Z,85.31
2022-10-14T18:48:04.628Z,85.47
2022-10-14T18:51:08.047Z,85.34
2022-10-14T18:54:21.235Z,85.94
2022-10-14T18:57:23.693Z,85.21
2022-10-14T19:00:26.872Z,85.03
2022-10-14T19:03:29.255Z,84.57
2022-10-14T19:06:32.953Z,85.28
2022-10-14T19:09:35.457Z,85.39
2022-10-14T19:12:44.415Z,85.41
2022-10-14T19:15:53.854Z,85.32
2022-10-14T19:18:57.369Z,85.93
2022-10-14T19:22:01.004Z,86.06
2022-10-14T19:25:03.587Z,86.41
2022-10-14T19:28:06.134Z,86.59
2022-10-14T19:31:20.129Z,87.74
2022-10-14T19:34:26.720Z,87.79
2022-10-14T19:37:29.684Z,88.84
2022-10-14T19:40:32.148Z,89.03
2022-10-14T19:43:35.015Z,88.63
2022-10-14T19:46:37.803Z,89.03
2022-10-14T19:49:40.167Z,89.03
2022-10-14T19:52:42.553Z,88.61
2022-10-14T19:55:44.988Z,88.41
2022-10-14T19:58:53.974Z,88.08
2022-10-14T20:01:56.402Z,88.32
2022-10-14T20:04:58.789Z,88.79
2022-10-14T20:08:02.669Z,89.22
2022-10-14T20:11:07.496Z,89.48
2022-10-14T20:14:09.909Z,88.91
2022-10-14T20:17:12.319Z,88.91
2022-10-14T20:20:16.377Z,88.42
2022-10-14T20:23:19.298Z,88.83
2022-10-14T20:26:22.091Z,88.83
2022-10-14T20:29:24.520Z,88.88
2022-10-14T20:32:26.891Z,88.43
2022-10-14T20:38:38.395Z,89.34
2022-10-14T20:41:40.843Z,88.15
2022-10-14T20:44:43.255Z,88.65
2022-10-14T20:47:53.307Z,88.48
2022-10-14T20:50:56.381Z,88.30
2022-10-14T20:54:03.095Z,88.33
2022-10-14T20:57:07.546Z,88.67
2022-10-14T21:00:10.298Z,88.84
2022-10-14T21:03:12.794Z,88.07
2022-10-14T21:06:18.426Z,87.47
2022-10-14T21:09:20.818Z,86.98
2022-10-14T21:12:23.412Z,87.29
2022-10-14T21:15:26.971Z,87.03
2022-10-14T21:18:29.361Z,87.93
2022-10-14T21:21:38.327Z,87.08
2022-10-14T21:24:47.579Z,87.93
2022-10-14T21:27:49.963Z,87.85
2022-10-14T21:30:52.303Z,87.87
2022-10-14T21:33:58.835Z,88.54
2022-10-14T21:37:03.654Z,88.49
2022-10-14T21:40:06.797Z,88.45
2022-10-14T21:43:09.171Z,88.70
2022-10-14T21:46:14.244Z,88.84
2022-10-14T21:49:16.740Z,89.54
2022-10-14T21:52:19.068Z,88.89
2022-10-14T21:55:21.343Z,88.28
2022-10-14T21:58:24.333Z,88.35
2022-10-14T22:01:29.063Z,88.51
2022-10-14T22:04:34.533Z,88.00
2022-10-14T22:07:39.897Z,87.96
2022-10-14T22:10:43.617Z,86.91
2022-10-14T22:13:46.783Z,87.09
2022-10-14T22:16:49.195Z,86.50
2022-10-14T22:19:51.508Z,86.90
2022-10-14T22:22:54.382Z,87.35
2022-10-14T22:26:03.328Z,86.25
2022-10-14T22:29:15.086Z,86.69
2022-10-14T22:32:17.422Z,87.38
2022-10-14T22:35:20.808Z,86.80
2022-10-14T22:38:23.180Z,86.80
2022-10-14T22:41:28.775Z,86.98
2022-10-14T22:44:33.382Z,87.37
2022-10-14T22:47:35.977Z,87.61
2022-10-14T22:50:38.270Z,87.42
2022-10-14T22:53:41.606Z,87.00
2022-10-14T22:56:43.980Z,86.46
2022-10-14T22:59:46.532Z,86.51
2022-10-14T23:02:48.909Z,86.81
2022-10-14T23:05:51.241Z,85.99
2022-10-14T23:08:54.506Z,86.36
2022-10-14T23:11:57.007Z,86.66
2022-10-14T23:14:59.383Z,86.01
2022-10-14T23:18:02.369Z,85.33
2022-10-14T23:21:16.706Z,85.33
2022-10-14T23:24:19.190Z,85.51
2022-10-14T23:27:21.599Z,85.51
2022-10-14T23:30:23.944Z,85.40
2022-10-14T23:33:26.400Z,85.20
2022-10-14T23:36:29.303Z,85.23
2022-10-14T23:39:31.654Z,85.99
2022-10-14T23:42:33.972Z,85.29
2022-10-14T23:45:36.328Z,85.16
2022-10-14T23:48:38.687Z,85.73
2022-10-14T23:51:42.363Z,86.07
2022-10-14T23:54:44.764Z,85.93
2022-10-14T23:57:47.189Z,85.94
